createdAt,value
2019-02-08T00:02:22.871Z,91.60
2019-02-08T00:07:28.431Z,91.48
2019-02-08T00:12:33.731Z,91.53
2019-02-08T00:17:38.881Z,91.62
2019-02-08T00:22:44.134Z,91.92
2019-02-08T00:27:49.422Z,92.06
2019-02-08T00:32:55.578Z,92.01
2019-02-08T00:38:00.693Z,92.11
2019-02-08T00:43:06.290Z,92.14
2019-02-08T00:48:11.490Z,92.16
2019-02-08T00:53:16.927Z,92.09
2019-02-08T00:58:22.118Z,92.07
2019-02-08T01:03:27.430Z,92.08
2019-02-08T01:08:32.597Z,92.05
2019-02-08T01:13:38.037Z,92.01
2019-02-08T01:18:43.284Z,92.03
2019-02-08T01:23:48.596Z,91.96
2019-02-08T01:28:53.912Z,92.03
2019-02-08T01:33:59.254Z,92.02
2019-02-08T01:39:07.083Z,91.91
2019-02-08T01:44:12.608Z,91.84
2019-02-08T01:49:17.841Z,91.87
2019-02-08T01:54:23.146Z,92.12
2019-02-08T01:59:28.363Z,92.35
2019-02-08T02:04:33.692Z,92.50
2019-02-08T02:09:38.882Z,92.55
2019-02-08T02:14:44.231Z,92.63
2019-02-08T02:19:49.426Z,92.75
2019-02-08T02:24:54.670Z,92.84
2019-02-08T02:29:59.975Z,92.96
2019-02-08T02:35:05.741Z,93.11
2019-02-08T02:40:12.423Z,93.24
2019-02-08T02:45:21.146Z,93.33
2019-02-08T02:50:26.733Z,93.37
2019-02-08T02:55:32.262Z,93.48
2019-02-08T03:00:41.434Z,93.44
2019-02-08T03:05:46.841Z,93.52
2019-02-08T03:10:52.280Z,93.57
2019-02-08T03:15:57.652Z,93.51
2019-02-08T03:21:02.848Z,93.40
2019-02-08T03:26:08.170Z,93.42
2019-02-08T03:31:13.479Z,93.39
2019-02-08T03:36:18.744Z,93.33
2019-02-08T03:41:24.033Z,93.19
2019-02-08T03:46:29.266Z,92.98
2019-02-08T03:51:34.451Z,92.78
2019-02-08T03:56:39.716Z,92.52
2019-02-08T04:01:45.037Z,92.51
2019-02-08T04:06:50.192Z,92.56
2019-02-08T04:11:55.663Z,92.54
2019-02-08T04:17:00.876Z,92.44
2019-02-08T04:22:06.256Z,92.22
2019-02-08T04:27:11.496Z,92.13
2019-02-08T04:32:16.866Z,91.87
2019-02-08T04:37:22.128Z,91.92
2019-02-08T04:42:27.362Z,91.80
2019-02-08T04:47:32.548Z,91.76
2019-02-08T04:52:37.811Z,91.71
2019-02-08T04:57:42.951Z,91.60
2019-02-08T05:02:48.331Z,91.64
2019-02-08T05:07:53.592Z,91.58
2019-02-08T05:12:59.278Z,91.53
2019-02-08T05:18:04.841Z,91.54
2019-02-08T05:23:10.096Z,91.67
2019-02-08T05:28:15.378Z,91.68
2019-02-08T05:33:20.632Z,91.64
2019-02-08T05:38:25.817Z,91.60
2019-02-08T05:43:31.138Z,91.55
2019-02-08T05:48:36.450Z,91.53
2019-02-08T05:53:41.938Z,91.49
2019-02-08T05:58:47.085Z,91.30
2019-02-08T06:03:52.277Z,91.26
2019-02-08T06:08:57.651Z,91.19
2019-02-08T06:14:02.956Z,90.93
2019-02-08T06:19:08.281Z,90.82
2019-02-08T06:24:13.619Z,90.66
2019-02-08T06:29:18.917Z,90.72
2019-02-08T06:34:24.340Z,90.60
2019-02-08T06:39:29.556Z,90.50
2019-02-08T06:44:34.806Z,90.50
2019-02-08T06:49:39.961Z,90.47
2019-02-08T06:54:45.365Z,90.52
2019-02-08T06:59:59.016Z,90.80
2019-02-08T07:05:12.934Z,90.97
2019-02-08T07:10:33.582Z,91.09
2019-02-08T07:15:47.036Z,91.17
2019-02-08T07:21:00.996Z,91.30
2019-02-08T07:26:13.753Z,91.35
2019-02-08T07:31:27.051Z,91.31
2019-02-08T07:36:43.996Z,91.23
2019-02-08T07:41:58.456Z,91.24
2019-02-08T07:47:10.375Z,91.13
2019-02-08T07:52:25.296Z,91.03
2019-02-08T07:57:38.962Z,91.00
2019-02-08T08:03:00.906Z,91.25
2019-02-08T08:08:17.090Z,91.61
2019-02-08T08:13:30.160Z,91.78
2019-02-08T08:18:47.232Z,91.71
2019-02-08T08:23:58.787Z,91.63
2019-02-08T08:29:11.493Z,91.67
2019-02-08T08:34:27.136Z,91.62
2019-02-08T08:39:56.408Z,91.53
2019-02-08T08:45:24.408Z,91.51
2019-02-08T08:50:57.160Z,91.64
2019-02-08T08:56:21.214Z,91.76
2019-02-08T09:01:45.283Z,91.92
2019-02-08T09:07:05.174Z,92.06
2019-02-08T09:12:32.687Z,92.05
2019-02-08T09:18:05.354Z,92.13
2019-02-08T09:35:22.137Z,92.28
2019-02-08T09:40:47.567Z,92.33
2019-02-08T09:46:13.623Z,92.29
2019-02-08T09:51:36.291Z,92.25
2019-02-08T09:57:01.681Z,92.02
2019-02-08T10:02:42.130Z,91.94
2019-02-08T10:08:13.906Z,92.13
2019-02-08T10:13:41.091Z,92.17
2019-02-08T10:19:10.152Z,92.08
2019-02-08T10:24:31.217Z,92.00
2019-02-08T10:29:53.792Z,91.46
2019-02-08T10:35:16.795Z,91.28
2019-02-08T10:40:39.217Z,90.91
2019-02-08T10:46:02.268Z,90.79
2019-02-08T10:51:30.842Z,90.88
2019-02-08T10:56:53.497Z,91.25
2019-02-08T11:02:21.397Z,91.44
2019-02-08T11:07:44.128Z,91.58
2019-02-08T11:13:12.122Z,91.60
2019-02-08T11:18:36.398Z,91.67
2019-02-08T11:23:41.638Z,91.77
2019-02-08T11:28:46.869Z,91.87
2019-02-08T11:33:52.174Z,91.69
2019-02-08T11:38:57.736Z,91.70
2019-02-08T11:44:02.978Z,91.85
2019-02-08T11:49:08.493Z,91.88
2019-02-08T11:54:13.987Z,91.87
2019-02-08T11:59:19.171Z,91.91
2019-02-08T12:04:24.352Z,92.08
2019-02-08T12:09:29.707Z,91.58
2019-02-08T12:14:34.971Z,91.31
2019-02-08T12:19:40.223Z,91.88
2019-02-08T12:24:45.453Z,91.42
2019-02-08T12:29:50.814Z,91.76
2019-02-08T12:34:56.097Z,90.96
2019-02-08T12:40:01.480Z,89.76
2019-02-08T12:45:07.817Z,89.55
2019-02-08T12:50:13.690Z,89.75
2019-02-08T12:55:19.017Z,89.89
2019-02-08T13:00:24.472Z,89.75
2019-02-08T13:05:29.819Z,89.41
2019-02-08T13:10:35.212Z,89.67
2019-02-08T13:15:40.457Z,89.02
2019-02-08T13:20:45.676Z,88.89
2019-02-08T13:25:50.817Z,86.41
2019-02-08T13:30:56.073Z,86.46
2019-02-08T13:36:01.245Z,85.05
2019-02-08T13:41:06.718Z,85.02
2019-02-08T13:46:11.931Z,84.96
2019-02-08T13:51:17.128Z,82.31
2019-02-08T13:56:22.302Z,78.70
2019-02-08T14:01:28.661Z,76.91
2019-02-08T14:06:36.877Z,74.99
2019-02-08T14:11:42.128Z,71.26
2019-02-08T14:16:47.498Z,73.96
2019-02-08T14:21:52.707Z,74.87
2019-02-08T14:26:58.134Z,74.32
2019-02-08T14:32:03.547Z,73.86
2019-02-08T14:37:08.977Z,73.26
2019-02-08T14:42:14.302Z,73.14
2019-02-08T14:47:19.674Z,73.33
2019-02-08T14:52:24.956Z,75.26
2019-02-08T14:57:30.133Z,76.63
2019-02-08T15:02:35.408Z,75.59
2019-02-08T15:07:40.806Z,75.84
2019-02-08T15:12:46.313Z,76.18
2019-02-08T15:17:51.573Z,77.51
2019-02-08T15:22:56.932Z,76.14
2019-02-08T15:28:02.292Z,75.99
2019-02-08T15:33:07.917Z,76.59
2019-02-08T15:38:13.201Z,75.10
2019-02-08T15:43:20.122Z,74.68
2019-02-08T15:48:25.427Z,74.64
2019-02-08T15:53:30.623Z,75.11
2019-02-08T15:58:35.887Z,76.33
2019-02-08T16:03:41.343Z,78.09
2019-02-08T16:08:46.542Z,77.92
2019-02-08T16:13:51.837Z,78.81
2019-02-08T16:18:59.839Z,79.67
2019-02-08T16:24:05.666Z,78.40
2019-02-08T16:29:11.097Z,78.69
2019-02-08T16:34:19.145Z,78.33
2019-02-08T16:39:24.410Z,77.67
2019-02-08T16:44:31.112Z,78.50
2019-02-08T16:49:37.634Z,79.66
2019-02-08T16:54:42.862Z,80.76
2019-02-08T16:59:48.048Z,80.73
2019-02-08T17:04:53.227Z,78.91
2019-02-08T17:09:58.411Z,80.94
2019-02-08T17:15:03.643Z,82.82
2019-02-08T17:20:11.821Z,84.48
2019-02-08T17:25:17.207Z,85.21
2019-02-08T17:30:22.830Z,85.38
2019-02-08T17:35:28.501Z,84.92
2019-02-08T17:40:34.742Z,84.02
2019-02-08T17:45:40.108Z,82.67
2019-02-08T17:50:45.632Z,83.12
2019-02-08T17:55:50.908Z,84.25
2019-02-08T18:00:58.415Z,84.62
2019-02-08T18:06:03.828Z,85.58
2019-02-08T18:11:09.041Z,86.35
2019-02-08T18:16:14.278Z,86.65
2019-02-08T18:21:19.512Z,86.35
2019-02-08T18:26:24.787Z,86.41
2019-02-08T18:31:30.182Z,86.43
2019-02-08T18:36:35.466Z,86.35
2019-02-08T18:41:40.626Z,86.11
2019-02-08T18:46:45.822Z,86.44
2019-02-08T18:51:51.092Z,86.44
2019-02-08T18:56:56.322Z,86.27
2019-02-08T19:02:01.553Z,85.77
2019-02-08T19:07:06.734Z,85.17
2019-02-08T19:12:12.002Z,85.36
2019-02-08T19:17:17.261Z,85.31
2019-02-08T19:22:22.708Z,84.64
2019-02-08T19:27:28.033Z,84.46
2019-02-08T19:32:33.348Z,83.97
2019-02-08T19:37:38.659Z,84.46
2019-02-08T19:42:45.093Z,83.12
2019-02-08T19:47:50.269Z,85.82
2019-02-08T19:52:55.692Z,86.10
2019-02-08T19:58:00.975Z,85.67
2019-02-08T20:03:06.800Z,86.19
2019-02-08T20:08:13.731Z,86.62
2019-02-08T20:13:18.935Z,86.90
2019-02-08T20:18:24.343Z,87.13
2019-02-08T20:23:29.699Z,86.88
2019-02-08T20:28:41.924Z,86.75
2019-02-08T20:33:41.877Z,86.97
2019-02-08T20:38:47.267Z,86.74
2019-02-08T20:43:52.482Z,86.63
2019-02-08T20:48:57.647Z,86.72
2019-02-08T20:54:02.937Z,86.15
2019-02-08T20:59:08.103Z,85.70
2019-02-08T21:04:13.427Z,85.49
2019-02-08T21:09:18.557Z,85.33
2019-02-08T21:14:23.986Z,85.07
2019-02-08T21:19:29.328Z,84.90
2019-02-08T21:24:34.547Z,84.64
2019-02-08T21:29:39.798Z,84.35
2019-02-08T21:34:45.175Z,84.03
2019-02-08T21:39:50.422Z,82.57
2019-02-08T21:44:55.777Z,81.88
2019-02-08T21:50:00.894Z,81.07
2019-02-08T21:55:08.243Z,81.22
2019-02-08T22:00:20.407Z,81.33
2019-02-08T22:05:28.194Z,81.09
2019-02-08T22:10:33.571Z,80.74
2019-02-08T22:15:39.238Z,79.90
2019-02-08T22:20:44.529Z,81.18
2019-02-08T22:25:49.647Z,82.22
2019-02-08T22:30:54.863Z,82.89
2019-02-08T22:36:00.131Z,82.44
2019-02-08T22:41:05.537Z,80.28
2019-02-08T22:46:10.777Z,79.24
2019-02-08T22:51:16.071Z,79.11
2019-02-08T22:56:21.277Z,78.18
2019-02-08T23:01:30.714Z,77.95
2019-02-08T23:06:44.261Z,79.22
2019-02-08T23:11:43.197Z,79.52
2019-02-08T23:16:51.410Z,78.36
2019-02-08T23:21:56.696Z,75.92
2019-02-08T23:27:02.202Z,76.23
2019-02-08T23:32:07.402Z,77.51
2019-02-08T23:37:12.623Z,76.80
2019-02-08T23:42:17.784Z,77.08
2019-02-08T23:47:23.059Z,77.88
2019-02-08T23:52:28.402Z,78.77
2019-02-08T23:57:33.767Z,79.79
